Time;durP1;ratioP1;P1;durP2;ratioP2;P2;SDS_P1;SDS_P2;PMS_P1;PMS_P2;Temp;Humidity;BMP_temperature;BMP_pressure;BME280_temperature;BME280_humidity;BME280_pressure;Samples;Min_cycle;Max_cycle;Signal;HPM_P1;HPM_P2
2021/11/05 00:01:47;;;;;;;1.98;1.63;;;9.50;99.90;;;;;;5055329;28;20515;-58
2021/11/05 00:04:15;;;;;;;2.45;2.08;;;9.50;99.90;;;;;;5056035;28;20547;-52
2021/11/05 00:06:42;;;;;;;2.50;2.10;;;9.50;99.90;;;;;;5043549;28;20218;-54
2021/11/05 00:09:09;;;;;;;1.67;1.58;;;9.50;99.90;;;;;;5058973;28;20213;-54
2021/11/05 00:11:36;;;;;;;2.85;2.55;;;9.50;99.90;;;;;;5049227;28;20304;-52
2021/11/05 00:14:03;;;;;;;2.28;2.08;;;9.40;99.90;;;;;;5062401;28;20384;-54
2021/11/05 00:16:30;;;;;;;2.42;2.22;;;9.40;99.90;;;;;;5062508;28;20207;-52
2021/11/05 00:18:58;;;;;;;2.38;2.17;;;9.40;99.90;;;;;;5061662;28;20220;-52
2021/11/05 00:21:25;;;;;;;1.85;1.58;;;9.40;99.90;;;;;;5062292;28;20265;-54
2021/11/05 00:23:52;;;;;;;2.92;2.50;;;9.30;99.90;;;;;;5050001;28;20224;-50
2021/11/05 00:26:19;;;;;;;4.50;2.10;;;9.30;99.90;;;;;;5050316;28;20200;-54
2021/11/05 00:28:46;;;;;;;3.13;2.50;;;9.30;99.90;;;;;;5057107;28;20199;-55
2021/11/05 00:31:14;;;;;;;2.38;2.17;;;9.30;99.90;;;;;;5050628;28;20383;-51
2021/11/05 00:33:40;;;;;;;1.95;1.75;;;9.20;99.90;;;;;;5055389;28;20375;-52
2021/11/05 00:36:14;;;;;;;3.10;2.00;;;9.10;99.90;;;;;;5051736;28;20260;-50
2021/11/05 00:38:43;;;;;;;2.92;1.70;;;9.00;99.90;;;;;;5058389;28;20246;-51
2021/11/05 00:41:13;;;;;;;2.28;1.75;;;9.00;99.90;;;;;;5055837;28;20293;-55
2021/11/05 00:43:40;;;;;;;2.10;1.85;;;9.10;99.90;;;;;;5052577;28;20276;-49
2021/11/05 00:46:08;;;;;;;2.70;2.40;;;9.10;99.90;;;;;;5055323;28;20211;-51
2021/11/05 00:48:36;;;;;;;3.13;1.98;;;9.00;99.90;;;;;;5054246;28;20199;-55
2021/11/05 00:51:03;;;;;;;2.58;2.35;;;9.00;99.90;;;;;;5052017;28;20247;-53
2021/11/05 00:53:30;;;;;;;3.22;2.33;;;9.00;99.90;;;;;;5053433;28;20253;-52
2021/11/05 00:55:58;;;;;;;1.75;1.65;;;9.00;99.90;;;;;;5058417;28;20205;-54
2021/11/05 00:58:25;;;;;;;2.08;1.88;;;9.10;99.90;;;;;;5051511;28;20345;-51
2021/11/05 01:00:52;;;;;;;2.58;2.05;;;9.10;99.90;;;;;;5055338;28;20232;-50
2021/11/05 01:03:19;;;;;;;2.15;1.95;;;9.20;99.90;;;;;;5053475;28;20287;-52
2021/11/05 01:05:46;;;;;;;3.45;2.00;;;9.10;99.90;;;;;;5055234;28;20199;-51
2021/11/05 01:08:14;;;;;;;4.20;3.65;;;9.10;99.90;;;;;;5051703;28;20380;-49
2021/11/05 01:10:41;;;;;;;3.13;2.60;;;9.10;99.90;;;;;;5054511;28;20227;-54
2021/11/05 01:13:08;;;;;;;3.20;2.90;;;9.10;99.90;;;;;;5051165;28;20204;-55
2021/11/05 01:15:35;;;;;;;4.05;2.03;;;9.10;99.90;;;;;;5055521;28;20445;-53
2021/11/05 01:18:02;;;;;;;3.47;2.50;;;9.10;99.90;;;;;;5060840;28;20203;-53
2021/11/05 01:20:30;;;;;;;3.35;2.42;;;9.10;99.90;;;;;;5060856;28;20228;-54
2021/11/05 01:22:58;;;;;;;4.03;2.10;;;9.10;99.90;;;;;;5054499;28;20570;-55
2021/11/05 01:25:25;;;;;;;3.33;2.47;;;9.20;99.90;;;;;;5059716;28;20234;-51
2021/11/05 01:27:52;;;;;;;2.60;2.03;;;9.20;99.90;;;;;;5053750;28;20336;-56
2021/11/05 01:30:20;;;;;;;2.70;2.33;;;9.20;99.90;;;;;;5053329;28;20219;-50
2021/11/05 01:32:47;;;;;;;3.20;2.50;;;9.20;99.90;;;;;;5054638;28;20538;-53
2021/11/05 01:35:16;;;;;;;4.20;3.13;;;9.20;99.90;;;;;;5057161;28;20207;-52
2021/11/05 01:37:44;;;;;;;2.67;2.25;;;9.20;99.90;;;;;;5053015;28;20204;-54
2021/11/05 01:40:13;;;;;;;2.55;2.15;;;9.20;99.90;;;;;;5055657;28;20257;-55
2021/11/05 01:42:42;;;;;;;2.92;2.72;;;9.30;99.90;;;;;;5059461;28;20301;-53
2021/11/05 01:45:12;;;;;;;3.30;3.00;;;9.20;99.90;;;;;;5054377;28;20197;-53
2021/11/05 01:47:40;;;;;;;2.65;2.45;;;9.30;99.90;;;;;;5056037;28;20239;-52
2021/11/05 01:50:09;;;;;;;3.50;2.83;;;9.20;99.90;;;;;;5053087;28;20457;-51
2021/11/05 01:52:41;;;;;;;3.05;2.33;;;9.30;99.90;;;;;;5047315;28;20200;-54
2021/11/05 01:55:10;;;;;;;3.03;2.70;;;9.30;99.90;;;;;;5048677;28;20438;-54
2021/11/05 01:57:38;;;;;;;5.22;3.17;;;9.30;99.90;;;;;;5054554;28;20208;-56
2021/11/05 02:00:08;;;;;;;2.60;2.35;;;9.30;99.90;;;;;;5040153;28;20231;-52
2021/11/05 02:02:35;;;;;;;3.50;3.20;;;9.30;99.90;;;;;;5059333;28;20289;-55
2021/11/05 02:05:03;;;;;;;4.13;2.83;;;9.30;99.90;;;;;;5047847;28;20208;-48
2021/11/05 02:07:34;;;;;;;2.30;2.10;;;9.30;99.90;;;;;;5050497;28;20195;-53
2021/11/05 02:10:06;;;;;;;3.28;2.63;;;9.30;99.90;;;;;;5042846;28;20229;-49
2021/11/05 02:12:34;;;;;;;4.57;2.53;;;9.10;99.90;;;;;;5056847;28;20208;-55
2021/11/05 02:15:02;;;;;;;3.70;3.00;;;9.00;99.90;;;;;;5059258;28;20211;-55
2021/11/05 02:17:30;;;;;;;5.65;3.72;;;8.90;99.90;;;;;;5055160;28;20203;-52
2021/11/05 02:19:58;;;;;;;4.43;2.90;;;8.70;99.90;;;;;;5058782;28;20289;-52
2021/11/05 02:22:26;;;;;;;3.65;3.05;;;8.60;99.90;;;;;;5041070;28;20274;-51
2021/11/05 02:24:54;;;;;;;4.80;3.22;;;8.50;99.90;;;;;;5045960;28;20195;-53
2021/11/05 02:27:22;;;;;;;4.68;3.45;;;8.50;99.90;;;;;;5048708;28;20204;-52
2021/11/05 02:29:48;;;;;;;5.65;3.92;;;8.40;99.90;;;;;;5050181;28;20215;-52
2021/11/05 02:32:16;;;;;;;4.25;3.67;;;8.30;99.90;;;;;;5051983;28;20200;-49
2021/11/05 02:34:43;;;;;;;4.35;3.53;;;8.20;99.90;;;;;;5047115;28;20207;-47
2021/11/05 02:37:10;;;;;;;3.75;3.30;;;8.20;99.90;;;;;;5050247;28;20195;-47
2021/11/05 02:39:37;;;;;;;4.72;3.85;;;8.20;99.90;;;;;;5052821;28;20269;-52
2021/11/05 02:42:05;;;;;;;5.20;4.35;;;8.20;99.90;;;;;;5057351;28;20234;-50
2021/11/05 02:44:32;;;;;;;4.53;3.58;;;8.30;99.90;;;;;;5052188;28;20327;-55
2021/11/05 02:47:17;;;;;;;4.28;3.75;;;8.30;99.90;;;;;;5057656;28;20204;-53
2021/11/05 02:49:46;;;;;;;7.32;4.38;;;8.30;99.90;;;;;;5049753;28;20270;-53
2021/11/05 02:52:14;;;;;;;5.55;4.65;;;8.30;99.90;;;;;;5045610;28;20196;-52
2021/11/05 02:54:42;;;;;;;4.20;3.40;;;8.30;99.90;;;;;;5053570;28;20196;-51
2021/11/05 02:57:10;;;;;;;6.88;5.00;;;8.30;99.90;;;;;;5056514;28;20498;-54
2021/11/05 02:59:37;;;;;;;3.63;3.33;;;8.30;99.90;;;;;;5044403;28;20410;-53
2021/11/05 03:02:07;;;;;;;4.22;3.30;;;8.40;99.90;;;;;;5048079;28;20249;-50
2021/11/05 03:04:36;;;;;;;5.45;4.80;;;8.40;99.90;;;;;;5049469;28;20236;-48
2021/11/05 03:07:06;;;;;;;5.43;4.90;;;8.40;99.90;;;;;;5059195;28;20199;-48
2021/11/05 03:09:39;;;;;;;7.65;4.90;;;8.40;99.90;;;;;;5054002;28;20407;-50
2021/11/05 03:12:09;;;;;;;4.57;3.85;;;8.40;99.90;;;;;;5075845;22;20239;-55
2021/11/05 03:14:38;;;;;;;8.65;5.22;;;8.50;99.90;;;;;;5057301;28;20206;-53
2021/11/05 03:17:11;;;;;;;7.88;4.18;;;8.50;99.90;;;;;;5058801;28;20203;-56
2021/11/05 03:19:39;;;;;;;6.75;4.57;;;8.50;99.90;;;;;;5059334;28;20211;-54
2021/11/05 03:22:06;;;;;;;4.65;3.90;;;8.60;99.90;;;;;;5042746;28;20274;-56
2021/11/05 03:24:34;;;;;;;5.50;4.88;;;8.60;99.90;;;;;;5034765;28;20232;-55
2021/11/05 03:27:01;;;;;;;4.60;3.50;;;8.70;99.90;;;;;;5039971;28;20208;-54
2021/11/05 03:29:29;;;;;;;4.43;4.03;;;8.70;99.90;;;;;;5040043;28;20196;-54
2021/11/05 03:31:56;;;;;;;5.10;4.32;;;8.80;99.90;;;;;;5038674;28;20220;-52
2021/11/05 03:34:24;;;;;;;9.63;5.65;;;8.80;99.90;;;;;;5036488;28;20563;-54
2021/11/05 03:36:51;;;;;;;6.25;4.47;;;8.80;99.90;;;;;;5038649;28;20200;-56
2021/11/05 03:39:18;;;;;;;3.65;3.33;;;8.70;99.90;;;;;;5038779;28;20246;-57
2021/11/05 03:41:45;;;;;;;6.13;4.78;;;8.70;99.90;;;;;;5039108;28;20239;-54
2021/11/05 03:44:13;;;;;;;4.85;4.10;;;8.80;99.90;;;;;;5041670;28;20224;-55
2021/11/05 03:46:40;;;;;;;5.68;4.65;;;8.80;99.90;;;;;;5045173;28;20246;-55
2021/11/05 03:49:08;;;;;;;4.50;3.38;;;8.80;99.90;;;;;;5045645;28;20553;-57
2021/11/05 03:51:35;;;;;;;3.88;3.22;;;8.80;99.90;;;;;;5038136;28;20376;-53
2021/11/05 03:54:03;;;;;;;7.20;5.28;;;8.80;99.90;;;;;;5038141;28;20220;-52
2021/11/05 03:56:30;;;;;;;4.75;4.20;;;8.90;99.90;;;;;;5042497;28;20655;-55
2021/11/05 03:58:57;;;;;;;6.97;3.85;;;8.80;99.90;;;;;;5042327;28;20204;-53
2021/11/05 04:01:24;;;;;;;5.40;4.45;;;8.80;99.90;;;;;;5042020;28;20342;-53
2021/11/05 04:03:53;;;;;;;7.50;4.38;;;8.90;99.90;;;;;;5042124;28;20290;-54
2021/11/05 04:06:21;;;;;;;6.32;4.15;;;8.80;99.90;;;;;;5042031;28;20372;-53
2021/11/05 04:08:48;;;;;;;4.93;4.53;;;8.80;99.90;;;;;;5040890;28;20200;-56
2021/11/05 04:11:16;;;;;;;4.57;3.83;;;8.80;99.90;;;;;;5041484;28;20224;-56
2021/11/05 04:13:44;;;;;;;7.15;5.32;;;8.90;99.90;;;;;;5043023;28;20270;-56
2021/11/05 04:16:12;;;;;;;5.68;5.18;;;8.90;99.90;;;;;;5042760;28;20205;-53
2021/11/05 04:18:39;;;;;;;4.20;3.80;;;8.90;99.90;;;;;;5036500;28;20212;-54
2021/11/05 04:21:07;;;;;;;5.05;4.53;;;8.90;99.90;;;;;;5039783;28;20293;-52
2021/11/05 04:23:34;;;;;;;5.78;4.22;;;8.90;99.90;;;;;;5037546;28;20510;-52
2021/11/05 04:26:03;;;;;;;7.10;4.18;;;8.90;99.90;;;;;;5042305;28;20266;-56
2021/11/05 04:28:32;;;;;;;3.90;3.60;;;8.90;99.90;;;;;;5041592;28;20342;-55
2021/11/05 04:31:01;;;;;;;4.40;3.92;;;8.90;99.90;;;;;;5042457;28;20266;-54
2021/11/05 04:33:31;;;;;;;5.22;4.65;;;9.00;99.90;;;;;;5042338;28;20208;-53
2021/11/05 04:36:00;;;;;;;5.32;4.30;;;8.90;99.90;;;;;;5042298;28;20266;-55
2021/11/05 04:38:27;;;;;;;5.60;4.50;;;8.90;99.90;;;;;;5041693;28;20204;-53
2021/11/05 04:40:56;;;;;;;5.78;4.93;;;8.90;99.90;;;;;;5041700;28;20220;-53
2021/11/05 04:43:23;;;;;;;6.55;4.88;;;8.90;99.90;;;;;;5042436;28;20309;-52
2021/11/05 04:45:50;;;;;;;7.95;4.70;;;8.80;99.90;;;;;;5041369;28;20196;-51
2021/11/05 04:48:18;;;;;;;5.07;4.57;;;8.90;99.90;;;;;;5041975;28;20246;-57
2021/11/05 04:50:45;;;;;;;4.93;4.35;;;8.90;99.90;;;;;;5041908;28;20216;-55
2021/11/05 04:53:12;;;;;;;3.50;3.20;;;8.90;99.90;;;;;;5041771;28;20192;-52
2021/11/05 04:55:40;;;;;;;5.60;4.10;;;8.90;99.90;;;;;;5041477;28;20210;-57
2021/11/05 04:58:07;;;;;;;5.60;3.95;;;8.90;99.90;;;;;;5039434;28;20430;-56
2021/11/05 05:00:35;;;;;;;4.07;3.67;;;9.00;99.90;;;;;;5041050;28;20250;-57
2021/11/05 05:03:04;;;;;;;6.20;3.75;;;9.00;99.90;;;;;;5039081;28;20229;-55
2021/11/05 05:05:32;;;;;;;3.75;3.45;;;8.90;99.90;;;;;;5040719;28;20218;-55
2021/11/05 05:07:59;;;;;;;4.03;3.58;;;9.00;99.90;;;;;;5041180;28;20200;-55
2021/11/05 05:10:28;;;;;;;4.72;4.25;;;8.90;99.90;;;;;;5036490;28;20262;-55
2021/11/05 05:12:55;;;;;;;7.68;4.47;;;9.00;99.90;;;;;;5036955;28;20200;-53
2021/11/05 05:15:23;;;;;;;4.53;3.97;;;9.10;99.90;;;;;;5040363;28;20204;-51
2021/11/05 05:17:50;;;;;;;7.18;4.15;;;9.10;99.90;;;;;;5040876;28;20208;-55
2021/11/05 05:20:19;;;;;;;5.70;4.57;;;9.00;99.90;;;;;;5037312;28;20198;-54
2021/11/05 05:22:47;;;;;;;6.78;4.90;;;9.00;99.90;;;;;;5040573;28;20243;-56
2021/11/05 05:25:17;;;;;;;6.05;4.70;;;9.00;99.90;;;;;;5040351;28;20220;-55
2021/11/05 05:27:46;;;;;;;9.80;6.00;;;8.90;99.90;;;;;;5040701;28;20200;-53
2021/11/05 05:30:15;;;;;;;5.85;4.20;;;9.00;99.90;;;;;;5040867;28;20376;-55
2021/11/05 05:32:44;;;;;;;5.88;4.20;;;9.00;99.90;;;;;;5041123;28;20369;-52
2021/11/05 05:35:11;;;;;;;4.68;4.28;;;9.00;99.90;;;;;;5040299;28;20580;-58
2021/11/05 05:37:39;;;;;;;7.18;4.22;;;9.00;99.90;;;;;;5039240;28;20204;-48
2021/11/05 05:40:08;;;;;;;7.00;3.75;;;9.00;99.90;;;;;;5040147;28;20212;-57
2021/11/05 05:42:35;;;;;;;4.50;4.10;;;9.10;99.90;;;;;;5040381;28;20200;-55
2021/11/05 05:45:03;;;;;;;3.95;3.55;;;9.10;99.90;;;;;;5038353;28;20220;-58
2021/11/05 05:47:31;;;;;;;5.10;4.32;;;9.10;99.90;;;;;;5036468;28;20196;-55
2021/11/05 05:49:58;;;;;;;6.18;4.05;;;9.10;99.90;;;;;;5039318;28;20197;-54
2021/11/05 05:52:26;;;;;;;5.05;4.53;;;9.00;99.90;;;;;;5039431;28;20216;-54
2021/11/05 05:54:54;;;;;;;4.05;3.65;;;9.00;99.90;;;;;;5040057;28;20304;-55
2021/11/05 05:57:21;;;;;;;5.07;3.72;;;9.00;99.90;;;;;;5040936;28;20196;-55
2021/11/05 05:59:48;;;;;;;4.35;3.33;;;9.10;99.90;;;;;;5038048;28;20204;-57
2021/11/05 06:02:16;;;;;;;4.90;4.40;;;9.10;99.90;;;;;;5040517;28;20349;-53
2021/11/05 06:04:43;;;;;;;5.60;3.47;;;9.00;99.90;;;;;;5040338;28;20232;-57
2021/11/05 06:07:10;;;;;;;5.25;3.45;;;9.10;99.90;;;;;;5034269;28;20447;-56
2021/11/05 06:09:37;;;;;;;5.63;4.10;;;9.10;99.90;;;;;;5039924;28;20246;-53
2021/11/05 06:12:05;;;;;;;6.80;4.60;;;9.10;99.90;;;;;;5037432;28;20224;-55
2021/11/05 06:14:33;;;;;;;4.20;3.80;;;9.20;99.90;;;;;;5038966;28;20240;-58
2021/11/05 06:17:00;;;;;;;4.45;4.05;;;9.20;99.90;;;;;;5031129;28;20250;-55
2021/11/05 06:19:28;;;;;;;4.30;3.95;;;9.30;99.90;;;;;;5040127;28;20254;-57
2021/11/05 06:21:56;;;;;;;5.60;4.53;;;9.10;99.90;;;;;;5038997;28;20287;-56
2021/11/05 06:24:23;;;;;;;4.88;4.38;;;9.10;99.90;;;;;;5042311;28;20238;-53
2021/11/05 06:26:51;;;;;;;7.28;5.18;;;9.00;99.90;;;;;;5035870;28;20208;-58
2021/11/05 06:29:19;;;;;;;4.93;4.30;;;9.20;99.90;;;;;;5039359;28;20193;-51
2021/11/05 06:31:46;;;;;;;6.00;4.57;;;9.20;99.90;;;;;;5040542;28;20415;-54
2021/11/05 06:34:14;;;;;;;5.60;4.43;;;9.20;99.90;;;;;;5039575;28;20208;-57
2021/11/05 06:36:41;;;;;;;4.85;4.35;;;9.40;99.90;;;;;;5038642;28;20204;-56
2021/11/05 06:39:10;;;;;;;7.13;4.53;;;9.40;99.90;;;;;;5039526;28;20200;-55
2021/11/05 06:41:37;;;;;;;7.07;4.50;;;9.40;99.90;;;;;;5040081;28;20224;-53
2021/11/05 06:44:05;;;;;;;5.75;5.00;;;9.20;99.90;;;;;;5039626;28;20357;-57
2021/11/05 06:46:33;;;;;;;5.18;4.53;;;9.20;99.90;;;;;;5037372;28;20377;-55
2021/11/05 06:49:00;;;;;;;6.65;4.22;;;9.10;99.90;;;;;;5038784;28;20238;-55
2021/11/05 06:51:28;;;;;;;6.32;4.45;;;9.30;99.90;;;;;;5039453;28;20219;-56
2021/11/05 06:53:56;;;;;;;9.30;4.72;;;9.40;99.90;;;;;;5039036;28;20500;-57
2021/11/05 06:56:23;;;;;;;6.45;4.55;;;9.60;99.90;;;;;;5039576;28;20208;-53
2021/11/05 06:58:55;;;;;;;5.85;5.25;;;9.60;99.90;;;;;;5038966;28;20254;-57
2021/11/05 07:01:23;;;;;;;6.82;4.35;;;9.60;99.90;;;;;;5039177;28;20220;-55
2021/11/05 07:03:51;;;;;;;7.18;4.88;;;9.60;99.90;;;;;;5039203;28;20229;-53
2021/11/05 07:06:18;;;;;;;7.00;4.35;;;9.70;99.90;;;;;;5039687;28;20500;-54
2021/11/05 07:08:46;;;;;;;4.93;4.47;;;9.70;99.90;;;;;;5039333;28;20207;-54
2021/11/05 07:11:13;;;;;;;6.65;4.65;;;9.70;99.90;;;;;;5037194;28;20260;-56
2021/11/05 07:13:40;;;;;;;6.22;5.63;;;9.70;99.90;;;;;;5033040;28;20208;-57
2021/11/05 07:16:08;;;;;;;6.70;4.47;;;9.70;99.90;;;;;;5038369;28;20242;-55
2021/11/05 07:18:36;;;;;;;4.40;4.00;;;9.70;99.90;;;;;;5040151;28;20209;-58
2021/11/05 07:21:04;;;;;;;5.00;4.60;;;9.80;99.90;;;;;;5042318;28;20216;-53
2021/11/05 07:23:32;;;;;;;4.50;4.10;;;9.90;99.90;;;;;;5041815;28;20518;-55
2021/11/05 07:26:02;;;;;;;4.63;3.60;;;10.00;99.90;;;;;;5042010;28;20204;-58
2021/11/05 07:28:29;;;;;;;4.35;3.83;;;10.00;99.90;;;;;;5042672;28;20198;-56
2021/11/05 07:30:58;;;;;;;5.50;4.57;;;10.10;99.90;;;;;;5042938;28;20626;-55
2021/11/05 07:33:25;;;;;;;4.35;3.38;;;10.20;99.90;;;;;;5042987;28;20207;-53
2021/11/05 07:35:52;;;;;;;6.65;4.53;;;10.10;99.90;;;;;;5042873;28;20269;-57
2021/11/05 07:38:20;;;;;;;4.28;3.88;;;10.30;99.90;;;;;;5036141;28;20255;-56
2021/11/05 07:40:47;;;;;;;12.38;5.85;;;10.40;99.90;;;;;;5042320;28;20221;-55
2021/11/05 07:43:14;;;;;;;6.22;5.25;;;10.10;99.90;;;;;;5042178;28;20402;-56
2021/11/05 07:45:42;;;;;;;6.18;4.35;;;10.20;99.90;;;;;;5042671;28;20283;-57
2021/11/05 07:48:09;;;;;;;6.18;4.80;;;10.40;99.90;;;;;;5041596;28;20273;-54
2021/11/05 07:50:36;;;;;;;6.40;4.90;;;10.40;99.90;;;;;;5043100;28;20220;-54
2021/11/05 07:53:05;;;;;;;5.78;3.75;;;10.60;99.90;;;;;;5042419;28;20204;-54
2021/11/05 07:55:33;;;;;;;4.63;4.15;;;10.40;99.90;;;;;;5042845;28;20204;-57
2021/11/05 07:58:01;;;;;;;6.80;4.80;;;10.30;99.90;;;;;;5041983;28;20251;-55
2021/11/05 08:00:28;;;;;;;5.85;5.35;;;10.30;99.90;;;;;;5042570;28;20232;-50
2021/11/05 08:02:56;;;;;;;6.05;4.47;;;10.20;99.90;;;;;;5042249;28;20512;-58
2021/11/05 08:05:23;;;;;;;9.82;5.35;;;10.40;99.90;;;;;;5042416;28;20232;-60
2021/11/05 08:07:51;;;;;;;4.38;3.85;;;10.30;99.90;;;;;;5040962;28;20201;-54
2021/11/05 08:10:21;;;;;;;4.97;4.20;;;10.40;99.90;;;;;;5042102;28;20236;-57
2021/11/05 08:12:51;;;;;;;4.65;4.03;;;10.30;99.90;;;;;;5035909;28;20198;-55
2021/11/05 08:15:22;;;;;;;6.03;5.07;;;10.10;99.90;;;;;;5042237;28;20200;-56
2021/11/05 08:17:50;;;;;;;6.32;4.30;;;10.40;99.90;;;;;;5037711;28;20227;-57
2021/11/05 08:20:18;;;;;;;4.43;4.03;;;10.40;99.90;;;;;;5041532;28;20205;-56
2021/11/05 08:22:46;;;;;;;6.25;4.78;;;10.50;99.90;;;;;;5042614;28;20205;-55
2021/11/05 08:25:16;;;;;;;5.32;4.65;;;10.40;99.90;;;;;;5041350;28;20466;-55
2021/11/05 08:27:44;;;;;;;8.73;6.10;;;10.40;99.90;;;;;;5042376;28;20202;-55
2021/11/05 08:30:17;;;;;;;5.00;4.45;;;10.40;99.90;;;;;;5040540;28;20194;-54
2021/11/05 08:32:44;;;;;;;6.07;4.88;;;10.30;99.90;;;;;;5041908;28;20207;-53
2021/11/05 08:35:13;;;;;;;6.05;4.93;;;10.40;99.90;;;;;;5041299;28;20204;-54
2021/11/05 08:37:40;;;;;;;4.35;4.00;;;10.50;99.90;;;;;;5041548;28;20216;-54
2021/11/05 08:40:09;;;;;;;4.03;3.60;;;10.60;99.90;;;;;;5041439;28;20468;-56
2021/11/05 08:42:37;;;;;;;4.38;3.97;;;10.60;99.90;;;;;;5041473;28;20200;-54
2021/11/05 08:45:07;;;;;;;5.40;4.22;;;10.60;99.90;;;;;;5041604;28;20406;-57
2021/11/05 08:47:36;;;;;;;5.40;4.90;;;10.80;99.90;;;;;;5041563;28;20442;-55
2021/11/05 08:50:19;;;;;;;3.60;3.30;;;11.00;99.90;;;;;;5041392;28;20540;-57
2021/11/05 08:52:46;;;;;;;4.32;3.67;;;11.10;99.90;;;;;;5041096;28;20198;-52
2021/11/05 08:55:15;;;;;;;6.20;3.90;;;11.10;99.90;;;;;;5040056;28;20225;-53
2021/11/05 08:57:42;;;;;;;5.28;4.80;;;11.20;99.90;;;;;;5041382;28;20504;-54
2021/11/05 09:00:21;;;;;;;6.15;4.60;;;11.20;99.90;;;;;;5041249;28;20213;-56
2021/11/05 09:02:49;;;;;;;4.18;3.78;;;11.20;99.90;;;;;;5041151;28;20209;-53
2021/11/05 09:05:17;;;;;;;10.85;4.38;;;11.40;99.90;;;;;;5041051;28;20275;-54
2021/11/05 09:07:44;;;;;;;4.13;3.60;;;11.40;99.90;;;;;;5036242;28;20436;-54
2021/11/05 09:10:13;;;;;;;6.40;3.70;;;11.40;99.90;;;;;;5040522;28;20202;-53
2021/11/05 09:12:40;;;;;;;5.47;4.50;;;11.40;99.90;;;;;;5071834;22;20237;-53
2021/11/05 09:15:10;;;;;;;5.15;3.90;;;11.30;99.90;;;;;;5057109;28;20260;-52
2021/11/05 09:17:39;;;;;;;8.95;8.15;;;11.20;99.90;;;;;;5055618;28;20207;-51
2021/11/05 09:20:09;;;;;;;5.43;3.60;;;11.20;99.90;;;;;;5061012;28;20332;-50
2021/11/05 09:22:39;;;;;;;5.50;3.30;;;11.20;99.90;;;;;;5055235;28;20229;-53
2021/11/05 09:25:07;;;;;;;4.75;3.60;;;11.20;99.90;;;;;;5060075;28;20271;-54
2021/11/05 09:27:35;;;;;;;10.85;4.35;;;11.30;99.90;;;;;;5060486;28;20201;-49
2021/11/05 09:30:06;;;;;;;5.35;4.30;;;11.30;99.90;;;;;;5055071;28;20221;-51
2021/11/05 09:32:33;;;;;;;4.82;3.88;;;11.30;99.90;;;;;;5054117;28;20574;-49
2021/11/05 09:35:00;;;;;;;4.10;3.70;;;11.30;99.90;;;;;;5059946;28;20213;-53
2021/11/05 09:37:28;;;;;;;5.05;3.72;;;11.50;99.90;;;;;;5053716;28;20531;-49
2021/11/05 09:39:55;;;;;;;10.48;4.72;;;11.30;99.90;;;;;;5049257;28;20210;-50
2021/11/05 09:42:22;;;;;;;4.57;4.18;;;11.30;99.90;;;;;;5055590;28;20287;-55
2021/11/05 09:44:50;;;;;;;6.75;4.50;;;11.10;99.90;;;;;;5049310;28;20219;-54
2021/11/05 09:47:17;;;;;;;5.50;4.20;;;11.10;99.90;;;;;;5057247;28;20236;-51
2021/11/05 09:49:44;;;;;;;4.95;3.92;;;11.30;99.90;;;;;;5050046;28;20441;-51
2021/11/05 09:52:13;;;;;;;7.15;3.90;;;11.20;99.90;;;;;;5056391;28;20222;-52
2021/11/05 09:54:42;;;;;;;3.53;3.10;;;11.10;99.90;;;;;;5054977;28;20267;-52
2021/11/05 09:57:09;;;;;;;5.50;3.42;;;11.00;99.90;;;;;;5059386;28;20273;-50
2021/11/05 09:59:37;;;;;;;3.95;3.65;;;11.10;99.90;;;;;;5054634;28;20408;-49
2021/11/05 10:02:04;;;;;;;4.72;2.72;;;11.00;99.90;;;;;;5057522;28;20224;-53
2021/11/05 10:04:32;;;;;;;4.55;3.50;;;10.90;99.90;;;;;;5059169;28;20217;-49
2021/11/05 10:07:05;;;;;;;3.20;2.90;;;10.70;99.90;;;;;;5058693;28;20204;-48
2021/11/05 10:09:44;;;;;;;3.67;2.65;;;10.50;99.90;;;;;;5053591;28;20503;-52
2021/11/05 10:12:16;;;;;;;3.20;2.50;;;10.60;99.90;;;;;;5050840;28;20228;-49
2021/11/05 10:14:46;;;;;;;3.22;2.92;;;10.70;99.90;;;;;;5057245;28;20201;-51
2021/11/05 10:17:16;;;;;;;4.00;2.45;;;10.80;99.90;;;;;;5058073;28;20214;-51
2021/11/05 10:19:57;;;;;;;2.10;2.00;;;10.80;99.90;;;;;;5046593;28;20494;-51
2021/11/05 10:22:51;;;;;;;2.95;2.10;;;10.70;99.90;;;;;;5051716;28;20226;-51
2021/11/05 10:25:39;;;;;;;2.00;1.55;;;10.60;99.90;;;;;;5049016;28;20254;-51
2021/11/05 10:28:12;;;;;;;2.30;1.75;;;10.50;99.90;;;;;;5058340;28;20385;-51
2021/11/05 10:31:03;;;;;;;1.60;1.50;;;10.30;99.90;;;;;;5053137;28;20372;-51
2021/11/05 10:33:32;;;;;;;1.90;1.80;;;10.20;99.90;;;;;;5058061;28;20235;-51
2021/11/05 10:36:04;;;;;;;3.40;2.13;;;10.10;99.90;;;;;;5057904;28;20234;-50
2021/11/05 10:38:34;;;;;;;1.70;1.45;;;10.10;99.90;;;;;;5055329;28;20208;-51
2021/11/05 10:41:04;;;;;;;1.00;0.90;;;9.90;99.90;;;;;;5053114;28;20220;-52
2021/11/05 10:43:41;;;;;;;1.10;1.00;;;9.60;99.90;;;;;;5058927;28;20234;-53
2021/11/05 10:46:36;;;;;;;1.58;1.10;;;9.60;99.90;;;;;;5056166;28;20269;-53
2021/11/05 10:49:19;;;;;;;1.95;1.20;;;9.60;99.90;;;;;;5054403;28;20553;-53
2021/11/05 10:51:47;;;;;;;1.33;1.00;;;9.70;99.90;;;;;;5047061;28;20259;-53
2021/11/05 10:54:19;;;;;;;2.63;1.85;;;9.80;99.90;;;;;;5045253;28;20203;-48
2021/11/05 10:56:47;;;;;;;2.08;1.88;;;9.80;99.90;;;;;;5059171;28;20268;-52
2021/11/05 10:59:14;;;;;;;1.77;1.42;;;9.70;99.90;;;;;;5054825;28;20226;-54
2021/11/05 11:01:46;;;;;;;1.83;1.33;;;9.60;99.90;;;;;;5058976;28;20576;-49
2021/11/05 11:04:13;;;;;;;2.92;1.80;;;9.50;99.90;;;;;;5056943;28;20664;-50
2021/11/05 11:06:45;;;;;;;1.50;1.40;;;9.40;99.90;;;;;;5050198;28;20251;-52
2021/11/05 11:09:15;;;;;;;2.33;2.13;;;9.50;99.90;;;;;;5055493;28;20207;-49
2021/11/05 11:11:43;;;;;;;2.67;1.88;;;9.60;99.90;;;;;;5052683;28;20221;-48
2021/11/05 11:14:17;;;;;;;3.05;2.60;;;9.60;99.90;;;;;;5050975;28;20399;-48
2021/11/05 11:16:45;;;;;;;2.42;2.20;;;9.70;99.90;;;;;;5050967;28;20355;-52
2021/11/05 11:19:16;;;;;;;2.40;1.55;;;9.90;99.90;;;;;;5058601;28;20237;-52
2021/11/05 11:21:47;;;;;;;1.80;1.70;;;10.00;99.90;;;;;;5053147;28;20219;-52
2021/11/05 11:24:17;;;;;;;2.70;1.90;;;10.00;99.90;;;;;;5050298;28;20216;-53
2021/11/05 11:26:47;;;;;;;2.40;2.00;;;10.20;99.90;;;;;;5044542;28;20539;-52
2021/11/05 11:29:17;;;;;;;1.30;1.20;;;10.10;99.90;;;;;;5066308;28;20200;-51
2021/11/05 11:31:45;;;;;;;1.50;1.10;;;10.20;99.90;;;;;;5055997;28;20265;-50
2021/11/05 11:34:15;;;;;;;1.40;1.30;;;10.20;99.90;;;;;;5058030;28;20243;-54
2021/11/05 11:36:54;;;;;;;2.22;1.50;;;10.30;99.90;;;;;;5041816;28;20267;-50
2021/11/05 11:39:23;;;;;;;1.50;1.33;;;10.40;99.90;;;;;;5041605;28;20246;-50
2021/11/05 11:41:53;;;;;;;1.30;1.15;;;10.60;99.90;;;;;;5052463;28;20291;-48
2021/11/05 11:44:24;;;;;;;0.75;0.75;;;10.70;99.90;;;;;;5049646;28;20300;-53
2021/11/05 11:47:15;;;;;;;1.00;0.90;;;10.60;99.90;;;;;;5056679;28;20267;-53
2021/11/05 11:49:48;;;;;;;1.17;1.05;;;10.70;99.90;;;;;;5046503;28;20246;-52
2021/11/05 11:52:18;;;;;;;1.08;0.60;;;10.90;99.90;;;;;;5054331;28;20225;-49
2021/11/05 11:54:54;;;;;;;1.08;0.98;;;11.00;99.90;;;;;;5058485;28;20496;-52
2021/11/05 11:57:31;;;;;;;1.67;1.10;;;11.00;99.90;;;;;;5046984;28;20232;-52
2021/11/05 12:00:22;;;;;;;1.85;1.02;;;11.10;99.90;;;;;;5057856;28;20385;-54
2021/11/05 12:03:00;;;;;;;0.75;0.75;;;11.20;99.90;;;;;;5052567;28;20343;-51
2021/11/05 12:05:31;;;;;;;1.10;0.85;;;11.30;99.90;;;;;;5057146;28;20297;-53
2021/11/05 12:08:19;;;;;;;1.33;1.10;;;11.20;99.90;;;;;;5057301;28;20201;-52
2021/11/05 12:11:09;;;;;;;1.70;1.25;;;11.20;99.90;;;;;;5061632;28;20393;-54
2021/11/05 12:13:36;;;;;;;7.60;1.60;;;11.30;99.90;;;;;;5058422;28;20235;-56
2021/11/05 12:16:10;;;;;;;1.13;1.02;;;11.30;99.90;;;;;;5063317;28;20274;-49
2021/11/05 12:18:57;;;;;;;1.42;1.30;;;11.10;99.90;;;;;;5062039;28;20472;-50
2021/11/05 12:21:28;;;;;;;1.27;1.00;;;10.90;99.90;;;;;;5050898;28;20227;-51
2021/11/05 12:24:17;;;;;;;0.80;0.80;;;10.70;99.90;;;;;;5056227;28;20206;-51
2021/11/05 12:26:55;;;;;;;0.93;0.85;;;10.80;99.90;;;;;;5058721;28;20231;-52
2021/11/05 12:29:36;;;;;;;0.90;0.90;;;11.00;99.90;;;;;;5057485;28;20209;-52
2021/11/05 12:32:19;;;;;;;2.28;0.98;;;10.90;99.90;;;;;;5059440;28;20220;-50
2021/11/05 12:34:56;;;;;;;0.80;0.80;;;10.80;99.90;;;;;;5057403;28;20231;-53
2021/11/05 12:37:35;;;;;;;0.80;0.80;;;10.70;99.90;;;;;;5053987;28;20199;-51
2021/11/05 12:40:23;;;;;;;1.13;1.00;;;10.70;99.90;;;;;;5045825;28;20193;-55
2021/11/05 12:42:54;;;;;;;1.20;1.10;;;10.80;99.90;;;;;;5052853;28;20216;-54
2021/11/05 12:45:41;;;;;;;0.70;0.70;;;10.70;99.90;;;;;;5049139;28;20224;-52
2021/11/05 12:48:09;;;;;;;2.05;0.88;;;10.80;99.90;;;;;;5060602;28;20508;-54
2021/11/05 12:50:36;;;;;;;1.13;0.85;;;10.70;99.90;;;;;;5060855;28;20213;-49
2021/11/05 12:53:09;;;;;;;1.35;0.93;;;10.60;99.90;;;;;;5060057;28;20404;-56
2021/11/05 12:55:38;;;;;;;3.85;1.05;;;10.30;99.90;;;;;;5061950;28;20206;-54
2021/11/05 12:58:15;;;;;;;1.40;1.30;;;10.20;99.90;;;;;;5056209;28;20217;-54
2021/11/05 13:01:02;;;;;;;1.45;1.00;;;10.00;99.90;;;;;;5060913;28;20223;-53
2021/11/05 13:03:30;;;;;;;2.15;1.58;;;9.90;99.90;;;;;;5060716;28;20239;-51
2021/11/05 13:06:00;;;;;;;0.98;0.90;;;10.00;99.90;;;;;;5060474;28;20247;-54